Time;durP1;ratioP1;P1;durP2;ratioP2;P2;SDS_P1;SDS_P2;PMS_P1;PMS_P2;Temp;Humidity;BMP_temperature;BMP_pressure;BME280_temperature;BME280_humidity;BME280_pressure;Samples;Min_cycle;Max_cycle;Signal;HPM_P1;HPM_P2
2023/03/21 00:01:06;;;;;;;7.00;5.72;;;12.80;78.30;;;;;;4903678;29;20470;-82
2023/03/21 00:03:33;;;;;;;7.20;5.65;;;12.80;78.30;;;;;;4918505;29;20032;-83
2023/03/21 00:06:05;;;;;;;7.05;5.53;;;12.80;78.30;;;;;;4902760;29;20123;-83
2023/03/21 00:08:30;;;;;;;6.68;5.65;;;12.80;78.30;;;;;;4902906;29;20139;-82
2023/03/21 00:10:58;;;;;;;8.95;5.93;;;12.80;78.30;;;;;;4902904;29;20474;-82
2023/03/21 00:13:27;;;;;;;6.63;5.93;;;12.80;78.30;;;;;;4902580;29;20043;-82
2023/03/21 00:15:56;;;;;;;6.95;6.03;;;12.80;78.30;;;;;;4919450;29;20119;-83
2023/03/21 00:18:22;;;;;;;6.93;6.20;;;12.80;78.30;;;;;;4917438;29;20194;-84
2023/03/21 00:20:59;;;;;;;7.00;5.53;;;12.80;78.30;;;;;;4886792;29;20598;-82
2023/03/21 00:23:26;;;;;;;8.25;6.15;;;12.80;78.30;;;;;;4902237;29;20036;-82
2023/03/21 00:25:52;;;;;;;7.35;5.75;;;12.80;78.30;;;;;;4886830;29;20115;-82
2023/03/21 00:28:18;;;;;;;7.10;5.55;;;12.80;78.30;;;;;;4918316;29;20377;-84
2023/03/21 00:30:44;;;;;;;7.47;5.97;;;12.80;78.30;;;;;;4902479;29;20031;-82
2023/03/21 00:33:11;;;;;;;7.10;6.13;;;12.80;78.30;;;;;;4902771;29;20135;-82
2023/03/21 00:35:38;;;;;;;6.60;5.63;;;12.70;78.30;;;;;;4917646;29;20131;-82
2023/03/21 00:38:06;;;;;;;7.70;6.43;;;12.80;78.30;;;;;;4902281;29;20040;-81
2023/03/21 00:40:32;;;;;;;7.53;6.35;;;12.80;78.30;;;;;;4901172;29;20028;-82
2023/03/21 00:42:58;;;;;;;7.60;6.10;;;12.80;78.30;;;;;;4917876;29;20034;-82
2023/03/21 00:45:25;;;;;;;7.93;6.18;;;12.80;78.30;;;;;;4902778;29;20036;-82
2023/03/21 00:47:50;;;;;;;7.32;5.95;;;12.80;78.30;;;;;;4902689;29;20525;-82
2023/03/21 00:50:17;;;;;;;7.45;6.10;;;12.80;78.30;;;;;;4933736;29;20131;-82
2023/03/21 00:52:43;;;;;;;7.80;6.28;;;12.80;78.30;;;;;;4917777;29;20056;-82
2023/03/21 00:55:16;;;;;;;7.55;6.40;;;12.80;78.30;;;;;;4917921;29;20036;-82
2023/03/21 00:57:44;;;;;;;8.02;6.60;;;12.80;78.30;;;;;;4917900;29;20028;-83
2023/03/21 01:00:12;;;;;;;6.80;5.72;;;12.80;79.00;;;;;;4902078;29;20119;-82
2023/03/21 01:02:55;;;;;;;7.30;6.20;;;12.80;78.40;;;;;;4917412;29;20036;-82
2023/03/21 01:06:12;;;;;;;6.55;5.50;;;12.80;79.00;;;;;;4901859;29;20067;-85
2023/03/21 01:08:19;;;;;;;6.80;5.57;;;12.80;78.40;;;;;;4896567;29;20437;-82
2023/03/21 01:10:47;;;;;;;6.97;6.25;;;12.80;78.30;;;;;;4917547;29;20024;-81
2023/03/21 01:13:16;;;;;;;7.05;5.90;;;12.70;78.30;;;;;;4901740;29;20024;-81
2023/03/21 01:15:44;;;;;;;6.97;5.65;;;12.80;78.30;;;;;;4902261;29;20040;-82
2023/03/21 01:18:11;;;;;;;7.20;6.20;;;12.80;78.40;;;;;;4917644;29;20031;-82
2023/03/21 01:20:38;;;;;;;7.90;6.70;;;12.80;78.30;;;;;;4917373;29;20180;-82
2023/03/21 01:23:04;;;;;;;7.95;6.68;;;12.70;78.30;;;;;;4917345;29;20043;-82
2023/03/21 01:25:30;;;;;;;7.63;6.38;;;12.80;78.30;;;;;;4901522;29;20454;-82
2023/03/21 01:27:56;;;;;;;7.25;6.22;;;12.80;78.30;;;;;;4917444;29;20097;-82
2023/03/21 01:30:22;;;;;;;7.38;6.43;;;12.80;78.30;;;;;;4901337;29;20484;-82
2023/03/21 01:32:48;;;;;;;7.75;6.57;;;12.80;78.30;;;;;;4917745;29;20044;-82
2023/03/21 01:35:15;;;;;;;7.80;6.30;;;12.70;78.30;;;;;;4917921;29;20082;-82
2023/03/21 01:37:42;;;;;;;7.50;6.50;;;12.70;78.30;;;;;;4917358;29;20388;-82
2023/03/21 01:40:13;;;;;;;8.82;6.35;;;12.70;78.30;;;;;;4916888;29;20474;-83
2023/03/21 01:42:40;;;;;;;7.45;6.05;;;12.80;78.40;;;;;;4901298;29;20362;-82
2023/03/21 01:45:45;;;;;;;6.97;6.07;;;12.70;78.30;;;;;;4901079;29;20078;-83
2023/03/21 01:48:13;;;;;;;6.78;5.88;;;12.70;78.30;;;;;;4932681;29;20497;-82
2023/03/21 01:50:45;;;;;;;7.30;5.72;;;12.70;78.30;;;;;;4918290;29;20104;-83
2023/03/21 01:53:27;;;;;;;7.25;5.95;;;12.80;78.30;;;;;;4932177;29;20036;-82
2023/03/21 01:55:53;;;;;;;8.13;6.07;;;12.70;78.30;;;;;;4901195;29;20066;-82
2023/03/21 01:58:34;;;;;;;7.15;5.95;;;12.70;78.30;;;;;;4932320;29;20040;-82
2023/03/21 02:01:05;;;;;;;6.40;5.50;;;12.70;78.30;;;;;;4933154;29;20036;-82
2023/03/21 02:03:48;;;;;;;7.83;6.30;;;12.70;78.30;;;;;;4915746;29;20040;-82
2023/03/21 02:06:48;;;;;;;6.47;5.40;;;12.70;78.30;;;;;;4932286;29;20806;-83
2023/03/21 02:09:27;;;;;;;7.43;5.93;;;12.70;78.30;;;;;;4901177;29;20028;-83
2023/03/21 02:11:54;;;;;;;7.22;6.07;;;12.70;78.30;;;;;;4900776;29;20035;-82
2023/03/21 02:14:20;;;;;;;7.85;6.03;;;12.70;78.30;;;;;;4900793;29;20028;-82
2023/03/21 02:17:17;;;;;;;7.53;6.20;;;12.70;78.30;;;;;;4900979;29;20050;-82
2023/03/21 02:20:01;;;;;;;6.88;5.45;;;12.70;78.30;;;;;;4885396;29;20028;-82
2023/03/21 02:22:37;;;;;;;7.68;6.07;;;12.70;78.30;;;;;;4916158;29;20038;-83
2023/03/21 02:25:34;;;;;;;7.05;6.18;;;12.70;78.30;;;;;;4916240;29;20043;-82
2023/03/21 02:28:29;;;;;;;7.00;5.43;;;12.70;78.40;;;;;;4932236;29;20135;-82
2023/03/21 02:31:15;;;;;;;6.65;5.75;;;12.70;78.40;;;;;;4917347;29;20071;-82
2023/03/21 02:33:44;;;;;;;6.82;5.65;;;12.70;78.40;;;;;;4916214;29;20043;-82
2023/03/21 02:36:47;;;;;;;6.85;5.70;;;12.70;78.40;;;;;;4915982;29;20474;-82
2023/03/21 02:39:35;;;;;;;6.93;5.60;;;12.70;78.50;;;;;;4915824;29;20064;-81
2023/03/21 02:42:12;;;;;;;7.25;5.63;;;12.70;78.50;;;;;;4932210;29;20029;-82
2023/03/21 02:45:08;;;;;;;7.88;6.13;;;12.70;78.50;;;;;;4900534;29;20044;-83
2023/03/21 02:48:09;;;;;;;7.30;6.13;;;12.70;78.40;;;;;;4885922;29;20445;-82
2023/03/21 02:50:51;;;;;;;7.55;5.68;;;12.70;78.50;;;;;;4885082;29;20032;-82
2023/03/21 02:53:21;;;;;;;7.57;6.00;;;12.70;78.50;;;;;;4885119;29;20084;-82
2023/03/21 02:55:48;;;;;;;7.05;5.82;;;12.70;78.40;;;;;;4899960;29;20095;-82
2023/03/21 02:58:21;;;;;;;7.85;6.30;;;12.70;78.50;;;;;;4899858;29;20020;-82
2023/03/21 03:00:55;;;;;;;7.55;5.57;;;12.70;78.50;;;;;;4900188;29;20036;-82
2023/03/21 03:03:38;;;;;;;7.10;5.43;;;12.70;78.50;;;;;;4900540;29;20213;-82
2023/03/21 03:06:19;;;;;;;6.78;5.78;;;12.70;78.40;;;;;;4919348;29;20043;-81
2023/03/21 03:09:03;;;;;;;7.82;6.15;;;12.70;78.50;;;;;;4904118;29;20059;-83
2023/03/21 03:11:40;;;;;;;7.00;5.57;;;12.70;78.50;;;;;;4888545;29;20072;-82
2023/03/21 03:14:12;;;;;;;7.03;5.85;;;12.70;78.50;;;;;;4920743;29;20039;-82
2023/03/21 03:17:04;;;;;;;8.07;6.18;;;12.70;78.50;;;;;;4920238;29;20100;-83
2023/03/21 03:19:35;;;;;;;7.05;5.93;;;12.60;78.50;;;;;;4920064;29;20059;-82
2023/03/21 03:22:05;;;;;;;7.40;6.03;;;12.70;78.50;;;;;;4920264;29;20144;-81
2023/03/21 03:25:04;;;;;;;7.45;6.20;;;12.60;78.50;;;;;;4919362;29;20032;-83
2023/03/21 03:27:36;;;;;;;8.30;5.78;;;12.60;78.50;;;;;;4893632;29;20054;-83
2023/03/21 03:30:04;;;;;;;8.05;5.72;;;12.70;78.50;;;;;;4903777;29;20163;-82
2023/03/21 03:32:36;;;;;;;7.03;6.03;;;12.60;78.50;;;;;;4919968;29;20029;-82
2023/03/21 03:35:04;;;;;;;7.10;5.93;;;12.60;78.60;;;;;;4903319;29;20040;-84
2023/03/21 03:37:34;;;;;;;7.28;6.15;;;12.60;78.50;;;;;;4892081;29;20095;-82
2023/03/21 03:40:09;;;;;;;8.30;6.68;;;12.60;78.50;;;;;;4942416;29;20453;-81
2023/03/21 03:42:52;;;;;;;7.93;6.28;;;12.70;78.60;;;;;;4926724;29;20122;-81
2023/03/21 03:45:53;;;;;;;7.18;6.07;;;12.60;78.50;;;;;;4938275;29;20047;-81
2023/03/21 03:48:45;;;;;;;7.30;6.00;;;12.60;78.60;;;;;;4885606;29;20044;-81
2023/03/21 03:51:36;;;;;;;7.70;6.28;;;12.70;78.60;;;;;;4935083;29;20056;-82
2023/03/21 03:54:22;;;;;;;7.30;5.60;;;12.60;78.60;;;;;;4917796;29;20482;-82
2023/03/21 03:56:50;;;;;;;6.95;5.57;;;12.60;78.50;;;;;;4919900;29;20176;-81
2023/03/21 03:59:18;;;;;;;7.82;6.30;;;12.60;78.50;;;;;;4903436;29;20063;-81
2023/03/21 04:01:56;;;;;;;7.30;5.97;;;12.60;78.60;;;;;;4903575;29;20103;-83
2023/03/21 04:04:27;;;;;;;7.72;6.18;;;12.60;78.50;;;;;;4903469;29;20067;-82
2023/03/21 04:06:54;;;;;;;7.80;6.28;;;12.60;78.60;;;;;;4903848;29;20036;-82
2023/03/21 04:09:23;;;;;;;7.15;5.72;;;12.60;78.60;;;;;;4919112;29;20035;-82
2023/03/21 04:11:49;;;;;;;9.07;6.63;;;12.60;78.60;;;;;;4887223;29;20038;-82
2023/03/21 04:14:14;;;;;;;6.60;5.60;;;12.60;78.60;;;;;;4918344;29;20451;-81
2023/03/21 04:16:41;;;;;;;7.00;5.78;;;12.60;78.60;;;;;;4918154;29;20032;-82
2023/03/21 04:19:07;;;;;;;7.50;5.97;;;12.60;78.70;;;;;;4934347;29;20043;-83
2023/03/21 04:21:33;;;;;;;7.82;5.88;;;12.60;78.60;;;;;;4902423;29;20036;-82
2023/03/21 04:24:00;;;;;;;7.10;5.97;;;12.60;78.60;;;;;;4902656;29;20043;-81
2023/03/21 04:26:31;;;;;;;7.32;5.80;;;12.60;78.60;;;;;;4902858;29;20135;-81
2023/03/21 04:29:28;;;;;;;6.10;5.07;;;12.60;78.60;;;;;;4907119;29;20033;-82
2023/03/21 04:32:26;;;;;;;8.00;5.20;;;12.60;78.50;;;;;;4876006;29;20477;-81
2023/03/21 04:35:02;;;;;;;6.70;5.35;;;12.60;78.50;;;;;;4934122;29;20044;-82
2023/03/21 04:37:32;;;;;;;6.47;5.28;;;12.60;78.60;;;;;;4918225;29;20103;-83
2023/03/21 04:39:58;;;;;;;6.32;5.22;;;12.60;78.60;;;;;;4902912;29;20447;-82
2023/03/21 04:42:24;;;;;;;6.60;5.50;;;12.60;78.60;;;;;;4902569;29;20119;-83
2023/03/21 04:44:50;;;;;;;7.65;6.10;;;12.60;78.60;;;;;;4918037;29;20454;-82
2023/03/21 04:47:19;;;;;;;8.45;6.18;;;12.60;78.60;;;;;;4918439;29;20032;-83
2023/03/21 04:49:47;;;;;;;6.88;5.60;;;12.60;78.70;;;;;;4887226;29;20158;-82
2023/03/21 04:52:13;;;;;;;7.20;5.22;;;12.60;78.70;;;;;;4918010;29;20028;-82
2023/03/21 04:54:39;;;;;;;7.03;5.32;;;12.60;78.70;;;;;;4934116;29;20044;-83
2023/03/21 04:57:05;;;;;;;7.18;5.25;;;12.60;78.60;;;;;;4902315;29;20028;-83
2023/03/21 04:59:31;;;;;;;6.43;5.32;;;12.60;78.70;;;;;;4917475;29;20129;-82
2023/03/21 05:01:57;;;;;;;6.47;5.35;;;12.60;78.60;;;;;;4902497;29;20132;-81
2023/03/21 05:04:25;;;;;;;7.10;5.60;;;12.60;78.70;;;;;;4918743;29;20032;-84
2023/03/21 05:06:51;;;;;;;6.40;4.88;;;12.60;78.60;;;;;;4901987;29;20028;-84
2023/03/21 05:09:17;;;;;;;6.85;4.93;;;12.60;78.70;;;;;;4917674;29;20469;-85
2023/03/21 05:11:46;;;;;;;5.70;4.88;;;12.60;78.70;;;;;;4887102;29;20102;-82
2023/03/21 05:14:19;;;;;;;5.63;4.63;;;12.60;78.70;;;;;;4918190;29;20036;-81
2023/03/21 05:16:53;;;;;;;5.97;4.85;;;12.50;78.70;;;;;;4902308;29;20071;-82
2023/03/21 05:19:21;;;;;;;5.47;4.32;;;12.60;78.70;;;;;;4886321;29;20028;-82
2023/03/21 05:21:49;;;;;;;6.13;4.75;;;12.50;78.70;;;;;;4885875;29;20028;-82
2023/03/21 05:24:24;;;;;;;6.50;5.40;;;12.60;78.70;;;;;;4916196;29;20035;-82
2023/03/21 05:26:54;;;;;;;5.50;4.63;;;12.50;78.70;;;;;;4900740;29;20427;-82
2023/03/21 05:29:22;;;;;;;5.80;4.68;;;12.60;78.70;;;;;;4916959;29;20091;-83
2023/03/21 05:31:56;;;;;;;6.85;4.80;;;12.60;78.70;;;;;;4901700;29;20095;-81
2023/03/21 05:34:24;;;;;;;6.10;4.90;;;12.50;78.70;;;;;;4932872;29;20067;-83
2023/03/21 05:36:50;;;;;;;6.25;4.82;;;12.60;78.70;;;;;;4901685;29;20075;-80
2023/03/21 05:39:16;;;;;;;6.32;5.10;;;12.50;78.70;;;;;;4916974;29;20115;-81
2023/03/21 05:41:50;;;;;;;6.73;4.73;;;12.50;78.70;;;;;;4901614;29;20032;-84
2023/03/21 05:44:16;;;;;;;5.75;4.70;;;12.50;78.70;;;;;;4902146;29;20042;-83
2023/03/21 05:46:42;;;;;;;6.43;4.70;;;12.50;78.70;;;;;;4933218;29;20091;-83
2023/03/21 05:49:10;;;;;;;5.65;4.57;;;12.50;78.70;;;;;;4901517;29;20036;-83
2023/03/21 05:51:36;;;;;;;5.22;4.38;;;12.50;78.70;;;;;;4886494;29;20028;-83
2023/03/21 05:54:02;;;;;;;5.78;4.80;;;12.50;78.70;;;;;;4901512;29;20375;-84
2023/03/21 05:56:28;;;;;;;7.13;4.85;;;12.50;78.70;;;;;;4901389;29;20480;-81
2023/03/21 05:58:59;;;;;;;5.78;4.45;;;12.50;78.70;;;;;;4916085;29;20068;-82
2023/03/21 06:01:25;;;;;;;7.40;4.80;;;12.50;78.70;;;;;;4900971;29;20044;-83
2023/03/21 06:04:06;;;;;;;5.63;4.28;;;12.50;79.40;;;;;;4914688;29;20477;-82
2023/03/21 06:06:33;;;;;;;5.63;4.38;;;12.50;78.70;;;;;;4901332;29;20042;-83
2023/03/21 06:09:00;;;;;;;6.03;4.38;;;12.50;78.70;;;;;;4916442;29;20450;-85
2023/03/21 06:11:30;;;;;;;6.53;4.90;;;12.50;78.70;;;;;;4900688;29;20032;-84
2023/03/21 06:14:28;;;;;;;5.80;4.47;;;12.50;78.70;;;;;;4884040;29;20450;-84
2023/03/21 06:17:16;;;;;;;6.50;4.45;;;12.50;78.70;;;;;;4917577;29;20048;-83
2023/03/21 06:19:48;;;;;;;6.00;4.70;;;12.50;78.70;;;;;;4901390;29;20032;-83
2023/03/21 06:22:24;;;;;;;6.10;4.53;;;12.50;79.40;;;;;;4900878;29;20044;-83
2023/03/21 06:24:50;;;;;;;6.15;4.68;;;12.50;78.80;;;;;;4916352;29;20040;-83
2023/03/21 06:27:17;;;;;;;5.95;4.47;;;12.50;78.80;;;;;;4900485;29;20119;-82
2023/03/21 06:29:50;;;;;;;6.15;4.32;;;12.50;78.80;;;;;;4900758;29;20024;-83
2023/03/21 06:32:16;;;;;;;5.32;4.13;;;12.50;78.90;;;;;;4885097;29;20036;-84
2023/03/21 06:34:43;;;;;;;5.47;4.18;;;12.40;78.80;;;;;;4916379;29;20047;-82
2023/03/21 06:37:12;;;;;;;7.03;4.85;;;12.50;78.90;;;;;;4900779;29;20032;-81
2023/03/21 06:39:38;;;;;;;5.50;4.00;;;12.50;78.90;;;;;;4915335;29;20393;-82
2023/03/21 06:42:04;;;;;;;5.45;4.38;;;12.50;78.90;;;;;;4917096;29;20115;-81
2023/03/21 06:44:30;;;;;;;5.35;4.13;;;12.50;78.90;;;;;;4916235;29;20032;-81
2023/03/21 06:47:01;;;;;;;5.35;4.30;;;12.50;78.90;;;;;;4916123;29;20036;-82
2023/03/21 06:49:27;;;;;;;6.03;4.13;;;12.50;78.90;;;;;;4900082;29;20397;-82
2023/03/21 06:51:56;;;;;;;7.13;4.15;;;12.50;78.90;;;;;;4900259;29;20039;-81
2023/03/21 06:54:22;;;;;;;5.50;4.07;;;12.50;78.90;;;;;;4900289;29;20497;-81
2023/03/21 06:57:00;;;;;;;5.25;3.92;;;12.50;78.90;;;;;;4900410;29;20025;-82
2023/03/21 06:59:30;;;;;;;5.55;4.30;;;12.40;78.90;;;;;;4900137;29;20139;-81
2023/03/21 07:02:05;;;;;;;5.95;4.18;;;12.40;78.90;;;;;;4901089;29;20039;-82
2023/03/21 07:04:36;;;;;;;6.00;4.68;;;12.40;78.90;;;;;;4900378;29;20028;-81
2023/03/21 07:07:04;;;;;;;5.45;4.10;;;12.40;78.90;;;;;;4915953;29;20119;-82
2023/03/21 07:09:30;;;;;;;5.25;4.05;;;12.40;78.90;;;;;;4900087;29;20039;-82
2023/03/21 07:12:01;;;;;;;5.20;3.72;;;12.40;78.90;;;;;;4900274;29;20036;-81
2023/03/21 07:14:38;;;;;;;5.57;4.25;;;12.40;78.80;;;;;;4914681;29;20036;-82
2023/03/21 07:17:04;;;;;;;6.00;4.53;;;12.40;78.80;;;;;;4932143;29;20043;-82
2023/03/21 07:19:30;;;;;;;5.35;4.20;;;12.40;78.80;;;;;;4916409;29;20055;-82
2023/03/21 07:21:55;;;;;;;5.35;4.10;;;12.50;78.90;;;;;;4900769;29;20032;-82
2023/03/21 07:24:21;;;;;;;4.90;3.90;;;12.50;78.90;;;;;;4917156;29;20540;-82
2023/03/21 07:26:47;;;;;;;4.85;3.70;;;12.50;78.90;;;;;;4915576;29;20048;-82
2023/03/21 07:29:13;;;;;;;4.95;3.63;;;12.40;78.80;;;;;;4931623;29;20462;-81
2023/03/21 07:31:38;;;;;;;5.50;3.88;;;12.50;78.90;;;;;;4900020;29;20036;-84
2023/03/21 07:34:04;;;;;;;5.47;3.92;;;12.50;78.80;;;;;;4900004;29;20032;-81
2023/03/21 07:36:31;;;;;;;5.10;3.65;;;12.50;78.80;;;;;;4915722;29;20063;-81
2023/03/21 07:38:56;;;;;;;5.95;3.95;;;12.50;78.80;;;;;;4915372;29;20469;-81
2023/03/21 07:41:23;;;;;;;5.10;3.67;;;12.50;78.90;;;;;;4915463;29;20123;-81
2023/03/21 07:43:50;;;;;;;5.72;3.90;;;12.50;78.90;;;;;;4899571;29;20032;-82
2023/03/21 07:46:17;;;;;;;5.80;4.00;;;12.50;78.90;;;;;;4899862;29;20040;-82
2023/03/21 07:48:43;;;;;;;5.05;4.10;;;12.50;78.90;;;;;;4915608;29;20039;-82
2023/03/21 07:51:09;;;;;;;5.20;3.58;;;12.50;79.50;;;;;;4918188;29;20032;-82
2023/03/21 07:53:35;;;;;;;5.45;3.75;;;12.50;78.90;;;;;;4903433;29;20028;-82
2023/03/21 07:56:00;;;;;;;4.88;3.67;;;12.50;78.90;;;;;;4903304;29;20036;-82
2023/03/21 07:58:27;;;;;;;5.85;3.88;;;12.50;78.90;;;;;;4919852;29;20028;-84
2023/03/21 08:00:55;;;;;;;4.80;3.50;;;12.50;78.90;;;;;;4902870;29;20044;-83
2023/03/21 08:03:22;;;;;;;5.82;4.03;;;12.50;78.90;;;;;;4918803;29;20036;-82
2023/03/21 08:05:49;;;;;;;5.68;3.80;;;12.50;78.90;;;;;;4918789;29;20414;-82
2023/03/21 08:08:14;;;;;;;4.75;3.40;;;12.60;79.00;;;;;;4903349;29;20044;-82
2023/03/21 08:10:44;;;;;;;5.38;3.85;;;12.60;78.90;;;;;;4903114;29;20059;-82
2023/03/21 08:13:10;;;;;;;4.65;3.50;;;12.60;78.90;;;;;;4919083;29;20036;-81
2023/03/21 08:15:36;;;;;;;5.13;3.67;;;12.60;78.90;;;;;;4935830;29;20051;-81
2023/03/21 08:18:02;;;;;;;5.35;3.88;;;12.60;78.90;;;;;;4919674;29;20059;-79
2023/03/21 08:20:28;;;;;;;5.07;3.70;;;12.60;78.90;;;;;;4920048;29;20047;-83
2023/03/21 08:22:54;;;;;;;5.65;3.58;;;12.60;78.90;;;;;;4909423;29;20060;-85
2023/03/21 08:25:21;;;;;;;5.57;3.60;;;12.60;78.90;;;;;;4942970;28;20389;-85
2023/03/21 08:27:48;;;;;;;5.60;3.58;;;12.60;78.90;;;;;;4942148;28;20039;-82
2023/03/21 08:30:17;;;;;;;4.70;3.33;;;12.60;78.90;;;;;;4955329;29;20059;-82
2023/03/21 08:32:43;;;;;;;4.95;3.50;;;12.60;78.90;;;;;;4897642;29;20091;-82
2023/03/21 08:35:11;;;;;;;4.97;3.80;;;12.60;78.90;;;;;;4940951;29;20174;-82
2023/03/21 08:37:39;;;;;;;5.70;3.88;;;12.70;78.90;;;;;;4919640;29;20031;-80
2023/03/21 08:40:10;;;;;;;4.78;3.50;;;12.60;78.90;;;;;;4935476;29;20043;-86
2023/03/21 08:42:37;;;;;;;5.68;3.90;;;12.70;78.90;;;;;;4920206;29;20047;-82
2023/03/21 08:45:03;;;;;;;5.68;3.75;;;12.70;78.90;;;;;;4902268;29;20036;-83
2023/03/21 08:47:30;;;;;;;4.80;3.53;;;12.70;78.90;;;;;;4903403;29;20043;-81
2023/03/21 08:49:57;;;;;;;4.90;3.55;;;12.70;78.90;;;;;;4933931;29;20036;-82
2023/03/21 08:52:24;;;;;;;5.68;3.53;;;12.70;78.90;;;;;;4918255;29;20047;-82
2023/03/21 08:54:50;;;;;;;4.88;3.50;;;12.70;78.90;;;;;;4920156;29;20127;-82
2023/03/21 08:57:16;;;;;;;6.28;3.55;;;12.70;78.80;;;;;;4934673;29;20450;-82
2023/03/21 08:59:42;;;;;;;4.85;3.47;;;12.70;78.80;;;;;;4904027;29;20056;-83
2023/03/21 09:02:10;;;;;;;4.45;3.28;;;12.70;78.80;;;;;;4917441;29;20087;-82
2023/03/21 09:04:39;;;;;;;4.35;3.30;;;12.70;78.80;;;;;;4918561;29;20123;-82
2023/03/21 09:07:05;;;;;;;4.70;3.33;;;12.80;78.90;;;;;;4917773;29;20035;-82
2023/03/21 09:09:31;;;;;;;4.60;3.22;;;12.80;78.80;;;;;;4902081;29;20414;-82
2023/03/21 09:11:57;;;;;;;5.45;3.45;;;12.80;78.80;;;;;;4917385;29;20402;-82
2023/03/21 09:14:23;;;;;;;6.18;3.78;;;12.80;78.80;;;;;;4901797;29;20028;-82
2023/03/21 09:16:49;;;;;;;5.95;3.30;;;12.80;78.80;;;;;;4902559;29;20397;-82
2023/03/21 09:19:16;;;;;;;5.63;3.60;;;12.80;78.80;;;;;;4917587;29;20028;-83
2023/03/21 09:21:43;;;;;;;6.07;3.60;;;12.80;78.80;;;;;;4917501;29;20032;-83
2023/03/21 09:24:11;;;;;;;5.13;3.60;;;12.80;78.80;;;;;;4902401;29;20119;-82
2023/03/21 09:26:38;;;;;;;6.07;3.60;;;12.90;79.40;;;;;;4901728;29;20044;-82
2023/03/21 09:29:04;;;;;;;4.93;3.47;;;12.90;78.80;;;;;;4917341;29;20036;-83
2023/03/21 09:31:31;;;;;;;4.47;3.22;;;12.90;78.80;;;;;;4917578;29;20096;-83
2023/03/21 09:33:57;;;;;;;4.45;3.25;;;12.90;78.80;;;;;;4901256;29;20074;-86
2023/03/21 09:36:26;;;;;;;5.25;3.22;;;12.90;78.70;;;;;;4902132;29;20071;-82
2023/03/21 09:38:53;;;;;;;5.20;3.50;;;12.90;78.80;;;;;;4919145;29;20039;-83
2023/03/21 09:41:38;;;;;;;5.05;3.20;;;13.00;78.80;;;;;;4934042;29;20036;-82
2023/03/21 09:44:28;;;;;;;6.13;3.55;;;13.00;78.90;;;;;;4901553;29;20075;-84
2023/03/21 09:47:05;;;;;;;4.50;3.15;;;13.00;78.80;;;;;;4918038;29;20123;-82
2023/03/21 09:49:37;;;;;;;5.35;3.47;;;13.00;78.70;;;;;;4901804;29;20032;-83
2023/03/21 09:52:16;;;;;;;5.35;3.40;;;13.00;78.70;;;;;;4901633;29;20035;-84
2023/03/21 09:54:43;;;;;;;4.45;3.35;;;13.00;78.80;;;;;;4901445;29;20453;-82
2023/03/21 09:57:30;;;;;;;6.03;3.50;;;13.00;78.70;;;;;;4901120;29;20144;-84
2023/03/21 10:00:06;;;;;;;4.57;3.03;;;13.00;78.80;;;;;;4901360;29;20051;-83
2023/03/21 10:02:46;;;;;;;4.55;3.17;;;13.10;78.80;;;;;;4932140;29;20048;-84
2023/03/21 10:05:22;;;;;;;4.72;3.20;;;13.10;78.70;;;;;;4916843;29;20040;-82
2023/03/21 10:08:21;;;;;;;4.28;3.03;;;13.10;79.10;;;;;;4901354;29;20054;-82
2023/03/21 10:11:00;;;;;;;5.00;3.03;;;13.10;78.70;;;;;;4932560;29;20032;-84
2023/03/21 10:13:31;;;;;;;4.85;3.40;;;13.10;78.70;;;;;;4918618;29;20038;-84
2023/03/21 10:15:59;;;;;;;4.15;3.05;;;13.10;78.70;;;;;;4916959;29;20040;-84
2023/03/21 10:18:29;;;;;;;4.80;3.15;;;13.20;78.70;;;;;;4900852;29;20075;-84
2023/03/21 10:20:55;;;;;;;4.18;3.08;;;13.20;78.70;;;;;;4901620;29;20051;-83
2023/03/21 10:23:25;;;;;;;3.92;3.00;;;13.20;78.70;;;;;;4900438;29;20174;-83
2023/03/21 10:25:57;;;;;;;5.38;3.35;;;13.20;78.70;;;;;;4917519;29;20036;-83
2023/03/21 10:28:30;;;;;;;4.32;3.03;;;13.20;78.70;;;;;;4932837;29;20032;-83
2023/03/21 10:31:00;;;;;;;4.07;2.75;;;13.20;78.70;;;;;;4884992;29;20393;-83
2023/03/21 10:33:34;;;;;;;4.28;3.05;;;13.30;78.80;;;;;;4885125;29;20039;-83
2023/03/21 10:36:15;;;;;;;4.03;2.90;;;13.30;78.80;;;;;;4933548;29;20044;-83
2023/03/21 10:38:45;;;;;;;4.65;3.28;;;13.30;78.70;;;;;;4916916;29;20393;-84
2023/03/21 10:41:11;;;;;;;4.40;3.35;;;13.30;78.70;;;;;;4933248;29;20036;-84
2023/03/21 10:43:39;;;;;;;4.25;3.05;;;13.30;79.00;;;;;;4901088;29;20115;-84
2023/03/21 10:46:22;;;;;;;3.90;2.80;;;13.40;78.70;;;;;;4900958;29;20534;-84
2023/03/21 10:48:52;;;;;;;4.13;2.75;;;13.40;78.70;;;;;;4900983;29;20421;-84
2023/03/21 10:51:27;;;;;;;4.07;3.08;;;13.40;78.60;;;;;;4916919;29;20055;-83
2023/03/21 10:54:04;;;;;;;4.22;3.25;;;13.40;78.70;;;;;;4901238;29;20117;-83
2023/03/21 10:56:36;;;;;;;4.72;3.03;;;13.40;78.60;;;;;;4900882;29;20123;-83
2023/03/21 10:59:05;;;;;;;3.88;2.90;;;13.50;78.70;;;;;;4901234;29;20036;-84
2023/03/21 11:01:45;;;;;;;4.22;2.90;;;13.50;78.60;;;;;;4916825;29;20469;-83
2023/03/21 11:04:17;;;;;;;5.05;3.00;;;13.50;78.70;;;;;;4917946;29;20366;-85
2023/03/21 11:07:01;;;;;;;5.32;3.40;;;13.60;78.60;;;;;;4900435;29;20488;-85
2023/03/21 11:09:47;;;;;;;5.65;2.83;;;13.60;78.60;;;;;;4933188;29;20032;-84
2023/03/21 11:12:15;;;;;;;4.07;2.90;;;13.60;78.60;;;;;;4900854;29;20028;-85
2023/03/21 11:14:47;;;;;;;4.20;3.00;;;13.60;78.50;;;;;;4900668;29;20039;-84
2023/03/21 11:17:15;;;;;;;3.70;2.70;;;13.70;78.60;;;;;;4917909;29;20035;-84
2023/03/21 11:19:56;;;;;;;4.43;3.17;;;13.70;78.50;;;;;;4932752;29;20035;-85
2023/03/21 11:22:24;;;;;;;3.92;2.88;;;13.80;78.60;;;;;;4901192;29;20136;-84
2023/03/21 11:24:58;;;;;;;4.88;3.20;;;13.80;78.50;;;;;;4933827;29;20024;-85
2023/03/21 11:27:28;;;;;;;3.80;2.95;;;13.80;78.50;;;;;;4889032;29;20039;-84
2023/03/21 11:29:56;;;;;;;5.25;3.03;;;13.80;78.50;;;;;;4922046;29;20106;-85
2023/03/21 11:32:36;;;;;;;3.80;2.97;;;13.80;78.50;;;;;;4937269;29;20047;-84
2023/03/21 11:35:17;;;;;;;3.80;2.97;;;13.90;78.50;;;;;;4910729;29;20039;-86
2023/03/21 11:37:46;;;;;;;4.70;3.10;;;13.90;78.50;;;;;;4910592;29;20027;-85
2023/03/21 11:40:23;;;;;;;3.92;3.03;;;13.90;78.40;;;;;;4893544;29;20028;-85
2023/03/21 11:42:55;;;;;;;3.85;2.90;;;14.00;78.50;;;;;;4907807;29;20118;-85
2023/03/21 11:45:23;;;;;;;3.88;2.67;;;14.00;78.40;;;;;;4936904;29;20040;-87
2023/03/21 11:47:51;;;;;;;4.53;3.10;;;14.00;78.40;;;;;;4921679;29;20119;-84
2023/03/21 11:50:25;;;;;;;4.90;3.08;;;14.10;78.40;;;;;;4919700;29;20036;-83
2023/03/21 11:53:01;;;;;;;4.07;2.97;;;14.10;78.40;;;;;;4935573;29;20040;-86
2023/03/21 11:55:54;;;;;;;4.43;2.97;;;14.10;78.40;;;;;;4919946;29;20048;-88
2023/03/21 11:58:45;;;;;;;3.83;2.90;;;14.10;78.40;;;;;;4887380;29;20044;-87
2023/03/21 12:01:17;;;;;;;6.20;3.03;;;14.10;78.30;;;;;;4936251;29;20107;-86
2023/03/21 12:04:06;;;;;;;3.78;2.70;;;14.20;78.30;;;;;;4920627;29;20083;-86
2023/03/21 12:06:59;;;;;;;4.97;3.08;;;14.20;78.40;;;;;;4920014;29;20032;-87
2023/03/21 12:09:29;;;;;;;3.60;2.70;;;14.30;78.50;;;;;;4906027;29;20346;-87
2023/03/21 12:12:02;;;;;;;4.97;3.13;;;14.30;78.30;;;;;;4940082;29;20562;-86
2023/03/21 12:14:41;;;;;;;5.00;3.05;;;14.40;78.40;;;;;;4921896;29;20043;-86
2023/03/21 12:17:44;;;;;;;3.80;2.65;;;14.40;78.40;;;;;;4906082;29;20048;-83
2023/03/21 12:20:22;;;;;;;4.20;2.72;;;14.40;78.30;;;;;;4935652;29;20036;-85
2023/03/21 12:23:07;;;;;;;3.75;2.97;;;14.40;78.20;;;;;;4934835;29;20040;-85
2023/03/21 12:25:55;;;;;;;4.43;3.08;;;14.40;78.30;;;;;;4919191;29;20040;-85
2023/03/21 12:28:28;;;;;;;4.20;2.85;;;14.50;78.30;;;;;;4920799;29;20047;-86
2023/03/21 12:31:09;;;;;;;3.60;2.88;;;14.50;78.20;;;;;;4935817;29;20096;-85
2023/03/21 12:33:50;;;;;;;4.40;3.15;;;14.50;78.30;;;;;;4918899;29;20489;-85
2023/03/21 12:37:04;;;;;;;4.53;2.80;;;14.60;78.30;;;;;;4902284;29;20040;-85
2023/03/21 12:39:34;;;;;;;3.67;2.85;;;14.60;78.30;;;;;;4900126;29;20040;-86
2023/03/21 12:42:21;;;;;;;4.10;2.83;;;14.60;78.20;;;;;;4903307;29;20036;-86
2023/03/21 12:44:55;;;;;;;4.25;2.92;;;14.70;78.30;;;;;;4919059;29;20044;-86
2023/03/21 12:47:28;;;;;;;4.82;2.97;;;14.70;78.30;;;;;;4887659;29;20119;-86
2023/03/21 12:49:57;;;;;;;4.65;3.15;;;14.70;78.20;;;;;;4918863;29;20039;-86
2023/03/21 12:52:30;;;;;;;4.03;2.88;;;14.80;78.30;;;;;;4903450;29;20056;-86
2023/03/21 12:55:15;;;;;;;4.30;2.92;;;14.80;78.30;;;;;;4919931;29;20043;-85
2023/03/21 12:58:03;;;;;;;4.38;2.95;;;14.80;78.30;;;;;;4934618;29;20032;-85
2023/03/21 13:00:52;;;;;;;3.90;2.58;;;14.90;78.30;;;;;;4896365;29;20055;-87
2023/03/21 13:03:40;;;;;;;4.45;3.20;;;14.90;78.20;;;;;;4934686;29;20036;-85
2023/03/21 13:06:11;;;;;;;4.47;3.25;;;14.90;78.20;;;;;;4902965;29;20056;-85
2023/03/21 13:09:04;;;;;;;5.22;3.28;;;15.00;78.20;;;;;;4934084;29;20032;-85
2023/03/21 13:11:30;;;;;;;4.25;3.13;;;14.90;78.20;;;;;;4918872;29;20032;-84
2023/03/21 13:14:16;;;;;;;4.97;3.25;;;15.00;78.70;;;;;;4934900;29;20047;-88
2023/03/21 13:16:48;;;;;;;4.35;3.10;;;15.00;78.10;;;;;;4919269;29;20067;-89